createdAt,value
2023-02-14T00:01:40.526Z,102108.16
2023-02-14T00:06:42.078Z,102099.97
2023-02-14T00:11:43.650Z,102093.91
2023-02-14T00:16:45.041Z,102098.03
2023-02-14T00:21:46.531Z,102091.06
2023-02-14T00:26:48.074Z,102089.03
2023-02-14T00:31:49.515Z,102091.25
2023-02-14T00:36:50.988Z,102098.13
2023-02-14T00:41:52.457Z,102107.38
2023-02-14T00:46:53.848Z,102104.53
2023-02-14T00:51:55.699Z,102089.03
2023-02-14T00:56:57.089Z,102083.91
2023-02-14T01:01:58.470Z,102082.22
2023-02-14T01:06:59.866Z,102075.41
2023-02-14T01:12:01.254Z,102081.81
2023-02-14T01:17:02.638Z,102079.78
2023-02-14T01:22:04.104Z,102076.09
2023-02-14T01:27:05.491Z,102067.59
2023-02-14T01:32:06.995Z,102065.56
2023-02-14T01:37:08.521Z,102067.53
2023-02-14T01:42:10.877Z,102059.97
2023-02-14T01:47:12.250Z,102059.03
2023-02-14T01:52:16.055Z,102058.22
2023-02-14T01:57:17.879Z,102063.72
2023-02-14T02:02:23.496Z,102063.22
2023-02-14T02:07:25.626Z,102061.72
2023-02-14T02:12:29.192Z,102057.16
2023-02-14T02:17:41.619Z,102051.31
2023-02-14T02:23:04.368Z,102046.31
2023-02-14T02:28:22.722Z,102050.78
2023-02-14T02:33:39.183Z,102050.44
2023-02-14T02:38:45.887Z,102044.53
2023-02-14T02:44:02.302Z,102042.84
2023-02-14T02:49:11.303Z,102046.47
2023-02-14T02:54:35.418Z,102039.63
2023-02-14T02:59:41.613Z,102031.31
2023-02-14T03:04:54.026Z,102027.94
2023-02-14T03:09:57.472Z,102026.91
2023-02-14T03:15:17.442Z,102033.31
2023-02-14T03:20:34.234Z,102039.72
2023-02-14T03:26:01.534Z,102034.53
2023-02-14T03:31:12.810Z,102033.31
2023-02-14T03:36:21.957Z,102023.50
2023-02-14T03:41:25.927Z,102030.94
2023-02-14T03:46:44.701Z,102020.88
2023-02-14T03:51:48.284Z,102014.75
2023-02-14T03:56:51.219Z,102017.78
2023-02-14T04:02:05.846Z,102028.53
2023-02-14T04:07:18.375Z,102020.59
2023-02-14T04:12:29.418Z,102038.78
2023-02-14T04:17:57.195Z,102035.88
2023-02-14T04:22:58.646Z,102023.50
2023-02-14T04:28:00.073Z,102022.28
2023-02-14T04:33:01.514Z,102022.22
2023-02-14T04:38:03.415Z,102013.50
2023-02-14T04:43:04.882Z,102013.63
2023-02-14T04:48:06.246Z,102013.25
2023-02-14T04:53:07.621Z,102008.22
2023-02-14T04:58:09.016Z,102000.88
2023-02-14T05:03:10.411Z,101995.81
2023-02-14T05:08:11.901Z,101996.88
2023-02-14T05:13:14.220Z,102003.34
2023-02-14T05:18:15.607Z,102005.16
2023-02-14T05:23:16.998Z,102004.47
2023-02-14T05:28:19.122Z,101995.81
2023-02-14T05:33:20.504Z,101997.81
2023-02-14T05:38:21.886Z,101998.38
2023-02-14T05:43:23.279Z,102006.84
2023-02-14T05:48:24.695Z,101993.66
2023-02-14T05:53:26.071Z,101987.22
2023-02-14T05:58:27.447Z,101993.53
2023-02-14T06:03:28.902Z,101985.84
2023-02-14T06:08:30.294Z,101986.94
2023-02-14T06:13:32.960Z,101992.97
2023-02-14T06:18:34.350Z,101997.13
2023-02-14T06:23:35.740Z,102001.59
2023-02-14T06:28:37.157Z,102003.53
2023-02-14T06:33:38.533Z,102006.00
2023-02-14T06:38:41.089Z,102000.88
2023-02-14T06:43:43.115Z,102010.31
2023-02-14T06:48:44.594Z,102016.63
2023-02-14T06:53:45.970Z,102011.28
2023-02-14T06:58:47.355Z,102011.63
2023-02-14T07:03:48.734Z,102022.09
2023-02-14T07:08:50.188Z,102013.44
2023-02-14T07:13:51.576Z,102015.25
2023-02-14T07:18:52.979Z,102012.97
2023-02-14T07:23:54.411Z,102007.19
2023-02-14T07:28:55.823Z,102004.59
2023-02-14T07:34:00.616Z,102000.63
2023-02-14T07:39:01.999Z,102006.84
2023-02-14T07:44:03.387Z,101998.88
2023-02-14T07:49:04.780Z,101997.97
2023-02-14T07:54:06.154Z,102003.34
2023-02-14T07:59:07.535Z,101998.88
2023-02-14T08:04:08.970Z,101996.56
2023-02-14T08:09:10.439Z,102000.72
2023-02-14T08:14:11.808Z,102006.94
2023-02-14T08:19:13.212Z,101998.28
2023-02-14T08:24:14.597Z,102002.75
2023-02-14T08:29:16.922Z,102003.44
2023-02-14T08:34:18.383Z,102013.91
2023-02-14T08:39:19.796Z,102010.06
2023-02-14T08:44:21.637Z,102009.69
2023-02-14T08:49:23.079Z,102009.59
2023-02-14T08:54:24.514Z,102011.63
2023-02-14T08:59:25.965Z,102007.41
2023-02-14T09:04:27.394Z,102002.88
2023-02-14T09:09:28.870Z,102004.38
2023-02-14T09:14:32.100Z,102014.19
2023-02-14T09:19:33.984Z,102016.38
2023-02-14T09:24:35.875Z,102018.50
2023-02-14T09:29:37.292Z,102022.03
2023-02-14T09:34:56.956Z,102016.38
2023-02-14T09:39:58.394Z,102033.44
2023-02-14T09:45:02.572Z,102025.25
2023-02-14T09:50:05.849Z,102029.19
2023-02-14T09:55:12.631Z,102024.19
2023-02-14T10:00:39.260Z,102021.91
2023-02-14T10:06:01.987Z,102024.00
2023-02-14T10:11:08.935Z,102022.69
2023-02-14T10:16:12.274Z,102023.53
2023-02-14T10:21:21.462Z,102014.34
2023-02-14T10:26:30.547Z,102009.50
2023-02-14T10:31:39.542Z,102013.31
2023-02-14T10:36:52.960Z,102008.63
2023-02-14T10:41:58.398Z,102009.34
2023-02-14T10:47:50.968Z,102006.78
2023-02-14T10:53:14.326Z,102006.47
2023-02-14T10:58:17.629Z,102003.47
2023-02-14T11:03:19.084Z,102007.72
2023-02-14T11:08:27.585Z,102005.16
2023-02-14T11:13:36.423Z,102008.97
2023-02-14T11:18:39.788Z,101999.28
2023-02-14T11:23:42.920Z,101993.13
2023-02-14T11:29:05.460Z,101995.06
2023-02-14T11:34:22.503Z,101984.56
2023-02-14T11:39:29.171Z,101983.97
2023-02-14T11:44:32.861Z,101981.84
2023-02-14T11:49:34.923Z,101974.81
2023-02-14T11:54:38.283Z,101973.78
2023-02-14T11:59:47.957Z,101967.56
2023-02-14T12:04:49.938Z,101962.94
2023-02-14T12:10:10.769Z,101953.19
2023-02-14T12:15:21.372Z,101953.56
2023-02-14T12:20:44.126Z,101939.09
2023-02-14T12:25:50.021Z,101939.56
2023-02-14T12:30:51.420Z,101928.63
2023-02-14T12:36:14.478Z,101923.50
2023-02-14T12:41:24.716Z,101922.28
2023-02-14T12:46:38.107Z,101914.09
2023-02-14T12:51:50.262Z,101908.03
2023-02-14T12:57:30.084Z,101899.47
2023-02-14T13:03:07.792Z,101892.44
2023-02-14T13:08:12.083Z,101885.50
2023-02-14T13:13:35.232Z,101880.94
2023-02-14T13:18:44.320Z,101875.47
2023-02-14T13:23:47.211Z,101880.88
2023-02-14T13:29:06.262Z,101877.59
2023-02-14T13:34:36.829Z,101870.63
2023-02-14T13:39:46.191Z,101862.44
2023-02-14T13:44:49.055Z,101860.38
2023-02-14T13:49:54.174Z,101851.25
2023-02-14T13:54:55.539Z,101849.16
2023-02-14T14:00:21.690Z,101855.31
2023-02-14T14:05:32.430Z,101853.22
2023-02-14T14:11:10.331Z,101847.75
2023-02-14T14:16:24.029Z,101847.50
2023-02-14T14:21:35.680Z,101840.94
2023-02-14T14:26:39.799Z,101834.06
2023-02-14T14:31:41.589Z,101821.66
2023-02-14T14:36:43.294Z,101825.88
2023-02-14T14:41:44.693Z,101831.00
2023-02-14T14:46:46.654Z,101812.88
2023-02-14T14:51:48.039Z,101820.94
2023-02-14T14:56:51.921Z,101797.00
2023-02-14T15:01:54.359Z,101798.25
2023-02-14T15:06:57.338Z,101788.84
2023-02-14T15:12:17.992Z,101782.94
2023-02-14T15:17:24.262Z,101781.94
2023-02-14T15:22:27.037Z,101780.06
2023-02-14T15:27:28.465Z,101769.06
2023-02-14T15:32:34.150Z,101765.25
2023-02-14T15:37:35.523Z,101757.00
2023-02-14T15:42:40.556Z,101754.31
2023-02-14T15:47:42.632Z,101754.94
2023-02-14T15:52:44.619Z,101762.69
2023-02-14T15:57:48.471Z,101753.16
2023-02-14T16:02:55.022Z,101755.28
2023-02-14T16:08:05.875Z,101750.69
2023-02-14T16:13:31.168Z,101758.44
2023-02-14T16:18:43.310Z,101759.00
2023-02-14T16:23:46.091Z,101751.44
2023-02-14T16:28:47.476Z,101757.75
2023-02-14T16:33:48.891Z,101759.25
2023-02-14T16:38:50.653Z,101759.47
2023-02-14T16:43:52.141Z,101754.56
2023-02-14T16:48:53.565Z,101750.78
2023-02-14T16:54:00.195Z,101754.00
2023-02-14T16:59:01.635Z,101760.09
2023-02-14T17:04:03.060Z,101745.72
2023-02-14T17:09:07.092Z,101744.59
2023-02-14T17:14:08.491Z,101740.69
2023-02-14T17:19:10.311Z,101733.16
2023-02-14T17:24:11.690Z,101744.47
2023-02-14T17:29:13.321Z,101734.53
2023-02-14T17:34:14.704Z,101732.41
2023-02-14T17:39:17.977Z,101731.78
2023-02-14T17:44:19.383Z,101727.22
2023-02-14T17:49:20.891Z,101722.78
2023-02-14T17:54:22.801Z,101721.31
2023-02-14T17:59:24.178Z,101714.59
2023-02-14T18:04:25.571Z,101718.63
2023-02-14T18:09:27.023Z,101715.09
2023-02-14T18:14:28.451Z,101710.22
2023-02-14T18:19:29.862Z,101709.13
2023-02-14T18:24:31.230Z,101702.88
2023-02-14T18:29:32.923Z,101699.94
2023-02-14T18:34:37.060Z,101700.75
2023-02-14T18:39:38.456Z,101697.63
2023-02-14T18:44:39.871Z,101698.19
2023-02-14T18:49:41.299Z,101690.88
2023-02-14T18:54:42.691Z,101684.56
2023-02-14T18:59:44.966Z,101687.72
2023-02-14T19:04:46.523Z,101673.41
2023-02-14T19:09:47.890Z,101671.72
2023-02-14T19:14:49.719Z,101663.56
2023-02-14T19:19:51.893Z,101661.84
2023-02-14T19:24:53.774Z,101665.63
2023-02-14T19:29:55.184Z,101668.53
2023-02-14T19:34:56.563Z,101667.53
2023-02-14T19:39:58.097Z,101658.28
2023-02-14T19:44:59.790Z,101656.16
2023-02-14T19:50:01.217Z,101653.84
2023-02-14T19:55:03.635Z,101655.53
2023-02-14T20:00:08.462Z,101652.63
2023-02-14T20:05:09.849Z,101645.69
2023-02-14T20:10:11.780Z,101648.16
2023-02-14T20:15:13.147Z,101653.84
2023-02-14T20:20:15.958Z,101638.72
2023-02-14T20:25:17.388Z,101643.75
2023-02-14T20:30:20.617Z,101631.97
2023-02-14T20:35:22.069Z,101635.09
2023-02-14T20:40:23.441Z,101631.56
2023-02-14T20:45:24.894Z,101626.31
2023-02-14T20:50:26.274Z,101627.13
2023-02-14T20:55:28.347Z,101618.72
2023-02-14T21:00:29.929Z,101621.03
2023-02-14T21:05:31.426Z,101614.94
2023-02-14T21:10:32.805Z,101617.91
2023-02-14T21:15:34.263Z,101616.84
2023-02-14T21:20:36.467Z,101619.34
2023-02-14T21:25:38.597Z,101609.88
2023-02-14T21:30:39.983Z,101611.19
2023-02-14T21:35:41.467Z,101604.00
2023-02-14T21:40:42.868Z,101597.88
2023-02-14T21:45:54.416Z,101593.09
2023-02-14T21:50:55.940Z,101585.72
2023-02-14T21:56:06.659Z,101586.38
2023-02-14T22:01:08.038Z,101575.41
2023-02-14T22:06:10.121Z,101571.22
2023-02-14T22:11:13.134Z,101570.41
2023-02-14T22:16:15.969Z,101570.41
2023-02-14T22:21:20.032Z,101566.38
2023-02-14T22:26:25.526Z,101559.00
2023-02-14T22:31:30.684Z,101559.22
2023-02-14T22:36:32.107Z,101555.22
2023-02-14T22:41:37.532Z,101557.75
2023-02-14T22:46:39.205Z,101561.50
2023-02-14T22:51:41.250Z,101557.72
2023-02-14T22:56:44.150Z,101560.28
2023-02-14T23:01:45.675Z,101552.72
2023-02-14T23:06:47.320Z,101551.22
2023-02-14T23:11:48.930Z,101540.84
2023-02-14T23:17:08.648Z,101541.31
2023-02-14T23:22:20.696Z,101545.78
2023-02-14T23:27:24.499Z,101539.25
2023-02-14T23:32:25.882Z,101537.78
2023-02-14T23:37:27.288Z,101534.78
2023-02-14T23:42:28.679Z,101525.78
2023-02-14T23:47:30.099Z,101516.13
2023-02-14T23:52:31.472Z,101515.69
2023-02-14T23:57:32.852Z,101520.03
